This is the latest recevied weather packets stored in our database for station/object HK4LRM-13. If no packets are shown the sender has not sent any weather packets the latest 10 day(s).
| Time | Temp. | Humidity | Pressure | Rain* | Wind** | Luminosity | Snow |
|---|---|---|---|---|---|---|---|
| 1777645345 | 22.78° C | 80% | 1014 hPa | 0 mm | - | - | - |
| 1777644805 | 22.22° C | 81% | 1014 hPa | 0 mm | - | - | - |
| 1777644264 | 20.56° C | 84% | 1014 hPa | 0 mm | - | - | - |
| 1777643724 | 20.56° C | 85% | 1014 hPa | 0 mm | - | - | - |
| 1777643183 | 20.56° C | 85% | 1014 hPa | 0 mm | - | - | - |
| 1777642642 | 20° C | 87% | 1014 hPa | 0 mm | - | - | - |
| 1777642102 | 20° C | 87% | 1014 hPa | 0 mm | - | - | - |
| 1777641561 | 19.44° C | 89% | 1014 hPa | 0 mm | - | - | - |
| 1777641019 | 19.44° C | 89% | 1014 hPa | 0 mm | - | - | - |
| 1777640479 | 20° C | 88% | 1014 hPa | 0 mm | - | - | - |
| 1777639938 | 20° C | 88% | 1014 hPa | 0 mm | - | - | - |
| 1777639397 | 20° C | 88% | 1014 hPa | 0 mm | - | - | - |
| 1777638856 | 20° C | 88% | 1014 hPa | 0 mm | - | - | - |
| 1777638314 | 20° C | 88% | 1015 hPa | 0 mm | - | - | - |
| 1777637774 | 20° C | 88% | 1015 hPa | 0 mm | - | - | - |
| 1777637233 | 20° C | 88% | 1015 hPa | 0 mm | - | - | - |
| 1777636692 | 20° C | 88% | 1015 hPa | 0 mm | - | - | - |
| 1777636150 | 20° C | 87% | 1015 hPa | 0 mm | - | - | - |
| 1777635607 | 20° C | 87% | 1015 hPa | 0 mm | - | - | - |
| 1777635066 | 20.56° C | 83% | 1016 hPa | 0 mm | - | - | - |
| 1777634525 | 20.56° C | 83% | 1016 hPa | 0 mm | - | - | - |
| 1777633984 | 20.56° C | 83% | 1015 hPa | 0 mm | - | - | - |
| 1777633444 | 19.44° C | 88% | 1015 hPa | 0 mm | - | - | - |
| 1777632903 | 19.44° C | 88% | 1015 hPa | 0 mm | - | - | - |
| 1777632364 | 19.44° C | 88% | 1015 hPa | 0 mm | - | - | - |
* Rain latest hour (hover to see other rain measurements)
** Current wind speed in m/s (hover to see current wind gust speed)